Time;durP1;ratioP1;P1;durP2;ratioP2;P2;SDS_P1;SDS_P2;PMS_P1;PMS_P2;Temp;Humidity;BMP_temperature;BMP_pressure;BME280_temperature;BME280_humidity;BME280_pressure;Samples;Min_cycle;Max_cycle;Signal;HPM_P1;HPM_P2
2022/04/17 00:01:18;;;;;;;17.60;8.15;;;2.90;60.90;;;;;;4109557;28;20062;-80
2022/04/17 00:03:21;;;;;;;18.98;9.18;;;2.90;61.00;;;;;;4095924;28;20059;-81
2022/04/17 00:05:22;;;;;;;;;;;2.90;61.10;;;;;;4109726;28;20232;-81
2022/04/17 00:07:23;;;;;;;17.75;8.30;;;2.80;61.90;;;;;;4092450;28;20350;-82
2022/04/17 00:09:24;;;;;;;18.73;7.70;;;2.80;60.90;;;;;;4096016;28;20039;-81
2022/04/17 00:11:24;;;;;;;14.88;7.80;;;2.90;61.00;;;;;;4094126;28;20760;-81
2022/04/17 00:13:25;;;;;;;18.60;8.57;;;2.70;61.00;;;;;;4109042;28;20035;-83
2022/04/17 00:15:26;;;;;;;17.98;8.65;;;2.70;61.10;;;;;;4093991;28;20384;-82
2022/04/17 00:17:26;;;;;;;16.58;8.00;;;2.80;61.30;;;;;;4095711;28;20109;-81
2022/04/17 00:19:27;;;;;;;20.92;8.73;;;2.70;61.40;;;;;;4096022;28;20043;-81
2022/04/17 00:21:28;;;;;;;15.55;7.82;;;2.70;61.50;;;;;;4097052;28;20027;-82
2022/04/17 00:23:29;;;;;;;17.58;7.80;;;2.60;61.60;;;;;;4094168;28;20036;-80
2022/04/17 00:25:29;;;;;;;17.25;8.18;;;2.60;61.80;;;;;;4107304;28;20129;-82
2022/04/17 00:27:30;;;;;;;17.17;8.15;;;2.60;61.90;;;;;;4108327;28;20030;-82
2022/04/17 00:29:31;;;;;;;16.80;8.07;;;2.60;62.10;;;;;;4094781;28;20038;-80
2022/04/17 00:31:32;;;;;;;14.98;7.82;;;2.60;62.20;;;;;;4093677;28;20058;-83
2022/04/17 00:33:33;;;;;;;14.38;7.53;;;2.60;62.30;;;;;;4090097;28;20094;-82
2022/04/17 00:35:34;;;;;;;18.63;7.28;;;2.50;62.40;;;;;;4094837;28;20027;-80
2022/04/17 00:37:36;;;;;;;18.40;8.43;;;2.50;62.40;;;;;;4077375;28;22311;-82
2022/04/17 00:39:37;;;;;;;16.98;8.65;;;2.60;62.50;;;;;;4093013;28;20395;-80
2022/04/17 00:41:38;;;;;;;15.23;7.70;;;2.50;62.40;;;;;;4092908;28;20027;-82
2022/04/17 00:43:47;;;;;;;19.63;8.10;;;2.50;62.60;;;;;;4088832;28;20039;-82
2022/04/17 00:45:48;;;;;;;15.68;7.63;;;2.40;62.70;;;;;;4093115;28;20049;-80
2022/04/17 00:47:48;;;;;;;15.38;7.43;;;2.50;62.70;;;;;;4094386;28;20063;-82
2022/04/17 00:49:49;;;;;;;14.98;7.28;;;2.50;63.00;;;;;;4092110;28;20043;-82
2022/04/17 00:51:50;;;;;;;16.38;7.68;;;2.40;63.40;;;;;;4112795;28;20446;-81
2022/04/17 00:53:53;;;;;;;13.15;6.70;;;2.40;63.10;;;;;;4090774;28;20110;-81
2022/04/17 00:55:54;;;;;;;13.57;6.57;;;2.40;63.00;;;;;;4091786;28;20511;-81
2022/04/17 00:57:55;;;;;;;12.40;6.38;;;2.40;63.00;;;;;;4091151;28;20121;-82
2022/04/17 00:59:57;;;;;;;9.90;5.15;;;2.40;63.10;;;;;;4094715;28;20495;-81
2022/04/17 01:01:58;;;;;;;12.15;5.22;;;2.40;63.40;;;;;;4093369;28;20546;-83
2022/04/17 01:03:59;;;;;;;9.98;5.45;;;2.40;63.40;;;;;;4108521;28;20023;-83
2022/04/17 01:06:01;;;;;;;13.27;5.28;;;2.30;63.50;;;;;;4095100;28;20030;-82
2022/04/17 01:08:02;;;;;;;8.13;4.93;;;2.30;63.60;;;;;;4091603;28;20031;-82
2022/04/17 01:10:03;;;;;;;8.23;4.72;;;2.30;63.70;;;;;;4100420;28;20451;-83
2022/04/17 01:12:09;;;;;;;10.75;5.05;;;2.30;63.70;;;;;;4094050;28;20031;-82
2022/04/17 01:14:12;;;;;;;14.05;5.07;;;2.30;63.80;;;;;;4106647;28;20035;-83
2022/04/17 01:16:16;;;;;;;10.32;5.25;;;2.30;63.90;;;;;;4096810;28;20466;-83
2022/04/17 01:18:17;;;;;;;8.45;5.05;;;2.30;63.90;;;;;;4096330;28;20039;-84
2022/04/17 01:20:18;;;;;;;9.43;5.00;;;2.30;63.90;;;;;;4092525;28;20699;-81
2022/04/17 01:22:19;;;;;;;11.75;5.78;;;2.30;63.90;;;;;;4096451;28;20533;-82
2022/04/17 01:26:56;;;;;;;10.73;5.25;;;2.30;63.80;;;;;;4093124;28;20026;-81
2022/04/17 01:28:57;;;;;;;9.25;4.38;;;2.20;63.70;;;;;;4090900;28;20036;-83
2022/04/17 01:30:58;;;;;;;10.23;4.13;;;2.20;63.60;;;;;;4090862;28;20039;-82
2022/04/17 01:32:59;;;;;;;9.25;4.68;;;2.20;63.60;;;;;;4105949;28;20449;-82
2022/04/17 01:35:00;;;;;;;7.55;4.50;;;2.10;63.50;;;;;;4089640;28;20031;-82
2022/04/17 01:37:01;;;;;;;9.27;4.60;;;2.10;63.50;;;;;;4089861;28;20127;-81
2022/04/17 01:39:02;;;;;;;7.93;3.90;;;2.10;63.50;;;;;;4103725;28;20041;-83
2022/04/17 01:41:02;;;;;;;12.35;3.95;;;2.10;63.60;;;;;;4094157;28;20035;-83
2022/04/17 01:43:10;;;;;;;7.95;4.90;;;2.00;63.50;;;;;;4091377;28;20122;-84
2022/04/17 01:45:11;;;;;;;6.75;3.78;;;2.00;63.60;;;;;;4092930;28;20732;-80
2022/04/17 01:47:12;;;;;;;8.05;4.13;;;2.00;63.70;;;;;;4087868;28;20041;-80
2022/04/17 01:49:15;;;;;;;7.22;4.10;;;1.90;63.70;;;;;;4092768;28;20562;-82
2022/04/17 01:51:15;;;;;;;9.13;4.15;;;1.90;63.90;;;;;;4090069;28;20215;-83
2022/04/17 01:53:16;;;;;;;8.35;4.20;;;1.90;63.80;;;;;;4093656;28;20396;-82
2022/04/17 01:55:17;;;;;;;9.75;4.85;;;1.90;63.90;;;;;;4088932;28;20035;-82
2022/04/17 01:57:17;;;;;;;9.55;4.97;;;1.90;63.90;;;;;;4085249;28;20031;-83
2022/04/17 01:59:19;;;;;;;11.27;4.97;;;1.90;63.80;;;;;;4091383;28;20035;-80
2022/04/17 02:01:20;;;;;;;10.85;5.28;;;1.80;63.90;;;;;;4088860;28;20059;-83
2022/04/17 02:03:21;;;;;;;12.07;5.05;;;1.80;64.10;;;;;;4087974;28;20035;-81
2022/04/17 02:05:21;;;;;;;14.23;5.65;;;1.80;64.20;;;;;;4086666;28;20146;-80
2022/04/17 02:07:22;;;;;;;11.70;4.53;;;1.80;64.20;;;;;;4092365;28;20031;-82
2022/04/17 02:09:22;;;;;;;10.15;5.22;;;1.80;64.30;;;;;;4092595;28;20411;-80
2022/04/17 02:11:25;;;;;;;8.90;4.55;;;1.80;64.40;;;;;;4090423;28;20061;-82
2022/04/17 02:13:27;;;;;;;8.93;4.72;;;1.80;64.40;;;;;;4092572;28;20046;-82
2022/04/17 02:15:27;;;;;;;9.30;4.88;;;1.70;64.40;;;;;;4091803;28;20024;-81
2022/04/17 02:17:28;;;;;;;9.48;4.50;;;1.70;64.50;;;;;;4094938;28;20429;-83
2022/04/17 02:19:29;;;;;;;11.55;4.72;;;1.70;64.60;;;;;;4088823;28;20135;-83
2022/04/17 02:21:30;;;;;;;8.80;4.70;;;1.70;64.70;;;;;;4090143;28;20107;-82
2022/04/17 02:23:31;;;;;;;9.65;5.25;;;1.70;64.80;;;;;;4094128;28;20035;-81
2022/04/17 02:25:32;;;;;;;9.23;5.38;;;1.70;65.00;;;;;;4091355;28;20037;-82
2022/04/17 02:27:32;;;;;;;9.02;4.65;;;1.70;65.00;;;;;;4106498;28;20094;-82
2022/04/17 02:29:34;;;;;;;12.15;5.72;;;1.70;65.00;;;;;;4104498;28;20468;-80
2022/04/17 02:31:35;;;;;;;12.32;5.43;;;1.70;65.10;;;;;;4093944;28;20039;-81
2022/04/17 02:33:37;;;;;;;10.55;5.50;;;1.60;65.00;;;;;;4087719;28;20043;-81
2022/04/17 02:35:38;;;;;;;11.07;5.57;;;1.60;65.10;;;;;;4092381;28;20027;-81
2022/04/17 02:37:39;;;;;;;12.35;5.45;;;1.60;65.10;;;;;;4086751;28;20031;-80
2022/04/17 02:39:40;;;;;;;11.48;6.10;;;1.60;65.20;;;;;;4093228;28;20031;-83
2022/04/17 02:41:41;;;;;;;10.30;5.63;;;1.60;65.20;;;;;;4092468;28;20043;-81
2022/04/17 02:43:41;;;;;;;12.50;6.38;;;1.60;65.30;;;;;;4093708;28;20036;-81
2022/04/17 02:45:43;;;;;;;12.10;6.32;;;1.60;65.30;;;;;;4093338;28;20061;-83
2022/04/17 02:47:44;;;;;;;11.98;6.15;;;1.60;65.50;;;;;;4093739;28;20047;-83
2022/04/17 02:49:45;;;;;;;13.05;6.35;;;1.60;65.70;;;;;;4093955;28;20118;-82
2022/04/17 02:51:45;;;;;;;10.30;5.80;;;1.60;65.80;;;;;;4096512;28;20308;-82
2022/04/17 02:53:46;;;;;;;9.38;5.45;;;1.60;65.90;;;;;;4093306;28;20031;-84
2022/04/17 02:55:47;;;;;;;10.18;5.28;;;1.60;65.90;;;;;;4095875;28;20493;-83
2022/04/17 02:57:48;;;;;;;9.23;5.40;;;1.60;66.00;;;;;;4094919;28;22369;-81
2022/04/17 02:59:48;;;;;;;11.90;5.80;;;1.60;66.00;;;;;;4099316;28;20027;-82
2022/04/17 03:06:28;;;;;;;9.57;5.28;;;1.60;66.10;;;;;;4093306;28;20042;-80
2022/04/17 03:08:28;;;;;;;8.32;4.90;;;1.60;66.20;;;;;;4110569;28;20042;-81
2022/04/17 03:10:29;;;;;;;9.30;5.50;;;1.60;66.20;;;;;;4094215;28;20067;-83
2022/04/17 03:12:30;;;;;;;10.65;5.95;;;1.60;66.30;;;;;;4093843;28;21410;-82
2022/04/17 03:14:30;;;;;;;11.70;5.72;;;1.50;66.40;;;;;;4095601;28;20050;-80
2022/04/17 03:16:31;;;;;;;11.73;6.07;;;1.60;66.40;;;;;;4091288;28;20031;-80
2022/04/17 03:18:32;;;;;;;11.80;5.68;;;1.50;66.40;;;;;;4095437;28;20063;-82
2022/04/17 03:20:33;;;;;;;11.98;5.90;;;1.60;66.60;;;;;;4096323;28;20034;-83
2022/04/17 03:22:34;;;;;;;9.80;5.32;;;1.50;66.60;;;;;;4094504;28;20027;-83
2022/04/17 03:24:35;;;;;;;11.88;5.50;;;1.50;66.70;;;;;;4093196;28;20082;-83
2022/04/17 03:26:36;;;;;;;10.80;5.40;;;1.50;66.70;;;;;;4108620;28;20537;-83
2022/04/17 03:28:37;;;;;;;10.07;5.45;;;1.60;66.70;;;;;;4095152;28;20031;-83
2022/04/17 03:30:38;;;;;;;11.50;5.72;;;1.50;66.70;;;;;;4100577;28;20037;-81
2022/04/17 03:32:38;;;;;;;11.50;5.18;;;1.50;66.70;;;;;;4090621;28;20035;-81
2022/04/17 03:34:39;;;;;;;10.57;5.47;;;1.50;66.70;;;;;;4100209;28;20038;-80
2022/04/17 03:36:40;;;;;;;10.55;6.03;;;1.50;66.70;;;;;;4100628;28;20049;-80
2022/04/17 03:38:40;;;;;;;14.02;5.72;;;1.50;66.70;;;;;;4110957;28;20029;-81
2022/04/17 03:40:41;;;;;;;9.95;5.35;;;1.50;66.60;;;;;;4098965;28;20130;-82
2022/04/17 03:42:42;;;;;;;7.82;5.03;;;1.50;66.60;;;;;;4098535;28;20137;-82
2022/04/17 03:44:43;;;;;;;10.90;5.93;;;1.50;66.60;;;;;;4112553;28;20117;-82
2022/04/17 03:46:43;;;;;;;8.90;5.20;;;1.40;66.50;;;;;;4097319;28;20035;-81
2022/04/17 03:48:44;;;;;;;14.15;5.85;;;1.40;66.80;;;;;;4099864;28;20039;-82
2022/04/17 03:50:45;;;;;;;8.43;5.00;;;1.40;66.50;;;;;;4097730;28;20085;-80
2022/04/17 03:52:49;;;;;;;10.60;5.35;;;1.40;66.60;;;;;;4096667;28;20027;-81
2022/04/17 03:54:50;;;;;;;11.18;5.10;;;1.40;66.50;;;;;;4113094;28;20023;-83
2022/04/17 03:56:52;;;;;;;10.35;5.30;;;1.40;66.60;;;;;;4092713;28;20534;-81
2022/04/17 03:58:53;;;;;;;8.60;4.78;;;1.40;66.60;;;;;;4100016;28;20023;-82
2022/04/17 04:00:54;;;;;;;9.82;4.93;;;1.30;66.50;;;;;;4112681;28;20612;-81
2022/04/17 04:02:54;;;;;;;10.35;5.40;;;1.30;67.30;;;;;;4108771;28;20039;-82
2022/04/17 04:04:56;;;;;;;9.38;5.25;;;1.30;66.50;;;;;;4100760;28;20027;-82
2022/04/17 04:06:57;;;;;;;8.77;5.13;;;1.30;66.50;;;;;;4117569;28;20545;-83
2022/04/17 04:08:57;;;;;;;10.05;5.10;;;1.30;66.50;;;;;;4102258;28;20106;-83
2022/04/17 04:10:58;;;;;;;10.43;5.13;;;1.20;66.40;;;;;;4099718;28;20027;-81
2022/04/17 04:12:59;;;;;;;10.77;5.25;;;1.20;66.50;;;;;;4102105;28;20031;-82
2022/04/17 04:14:59;;;;;;;9.68;5.07;;;1.20;66.50;;;;;;4117856;28;20534;-82
2022/04/17 04:17:00;;;;;;;10.45;5.63;;;1.20;66.50;;;;;;4099479;28;20357;-83
2022/04/17 04:19:01;;;;;;;12.85;6.00;;;1.20;66.60;;;;;;4098544;28;20643;-82
2022/04/17 04:21:02;;;;;;;8.55;5.13;;;1.10;66.50;;;;;;4096176;28;22216;-83
2022/04/17 04:23:02;;;;;;;9.50;5.57;;;1.10;66.50;;;;;;4095570;28;20231;-82
2022/04/17 04:25:04;;;;;;;9.43;5.97;;;1.10;66.50;;;;;;4109776;28;20592;-82
2022/04/17 04:29:23;;;;;;;10.73;5.28;;;1.20;66.70;;;;;;4095872;28;20448;-82
2022/04/17 04:31:24;;;;;;;9.18;4.85;;;1.10;66.70;;;;;;4088637;28;20102;-82
2022/04/17 04:33:25;;;;;;;10.48;5.15;;;1.10;66.80;;;;;;4108109;28;20144;-82
2022/04/17 04:35:29;;;;;;;12.32;5.88;;;1.00;66.70;;;;;;4106075;28;20045;-81
2022/04/17 04:37:30;;;;;;;11.40;5.72;;;1.10;66.80;;;;;;4097048;28;20929;-81
2022/04/17 04:39:30;;;;;;;9.57;6.03;;;1.00;66.70;;;;;;4097122;28;20042;-82
2022/04/17 04:41:31;;;;;;;11.25;6.35;;;1.00;66.90;;;;;;4096626;28;20069;-82
2022/04/17 04:43:32;;;;;;;13.45;6.18;;;0.90;67.10;;;;;;4111868;28;20034;-79
2022/04/17 04:47:52;;;;;;;12.40;5.72;;;1.00;67.60;;;;;;4093166;28;20050;-80
2022/04/17 04:49:52;;;;;;;11.90;5.82;;;1.00;67.70;;;;;;4098589;28;20022;-80
2022/04/17 04:51:53;;;;;;;11.05;5.80;;;1.00;68.00;;;;;;4098877;28;20035;-80
2022/04/17 04:53:56;;;;;;;9.50;5.85;;;1.00;68.20;;;;;;4108511;28;20637;-82
2022/04/17 04:55:57;;;;;;;11.23;6.00;;;1.00;68.30;;;;;;4095907;28;20039;-81
2022/04/17 04:58:01;;;;;;;12.68;6.82;;;1.10;68.60;;;;;;4095500;28;20337;-83
2022/04/17 05:00:04;;;;;;;9.95;5.82;;;1.10;68.80;;;;;;4096310;28;20031;-81
2022/04/17 05:02:04;;;;;;;13.35;5.70;;;1.10;69.00;;;;;;4108297;28;20039;-81
2022/04/17 05:04:05;;;;;;;10.43;6.00;;;1.20;69.20;;;;;;4091415;28;20115;-82
2022/04/17 05:06:07;;;;;;;10.38;6.15;;;1.20;69.60;;;;;;4108170;28;20047;-81
2022/04/17 05:08:08;;;;;;;13.67;7.30;;;1.20;70.00;;;;;;4091696;28;20039;-83
2022/04/17 05:10:09;;;;;;;11.23;6.13;;;1.30;70.50;;;;;;4091824;28;20094;-81
2022/04/17 05:12:10;;;;;;;13.45;6.88;;;1.30;70.60;;;;;;4090455;28;20120;-80
2022/04/17 05:14:11;;;;;;;14.00;6.78;;;1.40;70.80;;;;;;4107152;28;20060;-81
2022/04/17 05:16:13;;;;;;;15.15;7.22;;;1.50;71.10;;;;;;4107953;28;20023;-81
2022/04/17 05:18:13;;;;;;;14.95;7.43;;;1.50;71.50;;;;;;4091087;28;20039;-81
2022/04/17 05:20:17;;;;;;;13.80;7.00;;;1.60;72.00;;;;;;4094046;28;20078;-81
2022/04/17 05:22:17;;;;;;;;;;;1.70;72.40;;;;;;4108018;28;20033;-80
2022/04/17 05:24:18;;;;;;;12.40;6.82;;;1.80;74.20;;;;;;4090632;28;19946;-80
2022/04/17 05:26:19;;;;;;;12.00;6.13;;;1.90;73.20;;;;;;4107802;28;20049;-81
2022/04/17 05:28:20;;;;;;;14.60;6.68;;;2.00;73.50;;;;;;4088292;28;20094;-85
2022/04/17 05:30:20;;;;;;;11.98;6.68;;;2.10;73.60;;;;;;4091880;28;20693;-80
2022/04/17 05:32:21;;;;;;;12.05;6.75;;;2.20;73.70;;;;;;4090378;28;20038;-81
2022/04/17 05:34:21;;;;;;;14.38;7.20;;;2.40;73.80;;;;;;4102244;28;20093;-83
2022/04/17 05:36:22;;;;;;;12.77;6.00;;;2.50;73.70;;;;;;4088388;28;20027;-81
2022/04/17 05:38:23;;;;;;;12.60;7.03;;;2.60;73.50;;;;;;4089467;28;20027;-81
2022/04/17 05:40:24;;;;;;;13.02;6.32;;;2.70;73.20;;;;;;4083602;28;20045;-83
2022/04/17 05:42:25;;;;;;;14.55;6.88;;;2.80;73.00;;;;;;4085910;28;20519;-83
2022/04/17 05:44:27;;;;;;;9.55;6.15;;;2.90;72.80;;;;;;4087854;28;20035;-82
2022/04/17 05:46:29;;;;;;;13.52;6.53;;;3.10;72.70;;;;;;4090428;28;20516;-82
2022/04/17 05:48:30;;;;;;;12.88;6.47;;;3.30;72.50;;;;;;4090210;28;20069;-82
2022/04/17 05:50:31;;;;;;;12.45;6.28;;;3.30;72.20;;;;;;4094779;28;20081;-82
2022/04/17 05:52:32;;;;;;;13.82;6.57;;;3.50;72.00;;;;;;4105866;28;20037;-81
2022/04/17 05:54:33;;;;;;;17.02;6.85;;;3.60;71.40;;;;;;4086016;28;20076;-83
2022/04/17 05:56:37;;;;;;;12.27;6.30;;;3.80;71.00;;;;;;4084445;28;20027;-81
2022/04/17 05:58:38;;;;;;;11.13;6.40;;;3.80;70.80;;;;;;4069492;29;20109;-83
2022/04/17 06:00:42;;;;;;;10.68;6.38;;;3.90;70.80;;;;;;4084331;28;20063;-87
2022/04/17 06:02:46;;;;;;;12.20;6.40;;;4.00;70.70;;;;;;4087724;28;20035;-85
2022/04/17 06:04:50;;;;;;;11.27;6.55;;;4.20;70.70;;;;;;4084264;28;20114;-85
2022/04/17 06:06:51;;;;;;;13.20;6.97;;;4.30;70.50;;;;;;4105369;28;20022;-85
2022/04/17 06:08:52;;;;;;;12.73;6.72;;;4.40;70.10;;;;;;4088940;28;20101;-85
2022/04/17 06:10:53;;;;;;;12.43;6.88;;;4.50;69.80;;;;;;4095728;28;20098;-84
2022/04/17 06:12:53;;;;;;;13.50;6.70;;;4.80;70.30;;;;;;4094095;28;20524;-87
2022/04/17 06:14:54;;;;;;;18.30;7.45;;;4.80;69.20;;;;;;4088959;28;20439;-85
2022/04/17 06:16:55;;;;;;;15.52;6.53;;;4.90;67.80;;;;;;4092550;28;20031;-87
2022/04/17 06:18:55;;;;;;;13.23;6.55;;;5.10;67.90;;;;;;4086624;28;20038;-84
2022/04/17 06:20:56;;;;;;;13.05;6.80;;;5.10;67.30;;;;;;4086112;28;20110;-84
2022/04/17 06:22:57;;;;;;;13.45;6.65;;;5.30;67.30;;;;;;4089427;28;20062;-85
2022/04/17 06:24:57;;;;;;;12.90;6.88;;;5.50;67.20;;;;;;4086110;28;20035;-88
2022/04/17 06:26:58;;;;;;;12.07;7.13;;;5.50;67.40;;;;;;4100406;28;20620;-85
2022/04/17 06:29:05;;;;;;;16.70;6.68;;;5.60;65.70;;;;;;4087466;28;20031;-84
2022/04/17 06:31:07;;;;;;;12.93;6.40;;;5.80;65.00;;;;;;4069164;29;20078;-88
2022/04/17 06:33:08;;;;;;;12.80;7.20;;;5.90;65.10;;;;;;4091365;28;20403;-88
2022/04/17 06:35:10;;;;;;;13.15;6.97;;;6.00;64.80;;;;;;4087788;28;20158;-86
2022/04/17 06:37:12;;;;;;;;;;;6.10;64.50;;;;;;4086144;28;20626;-84
2022/04/17 06:39:12;;;;;;;11.20;6.20;;;6.20;63.20;;;;;;4083163;28;20021;-87
2022/04/17 06:41:13;;;;;;;11.20;6.53;;;6.40;64.10;;;;;;4080411;28;20095;-86
2022/04/17 06:43:14;;;;;;;12.30;6.80;;;6.50;64.50;;;;;;4085832;28;20473;-85
2022/04/17 06:45:19;;;;;;;16.15;6.80;;;6.70;63.20;;;;;;4089704;28;20118;-87
2022/04/17 06:47:19;;;;;;;13.05;7.18;;;6.70;62.80;;;;;;4092605;28;20042;-85
2022/04/17 06:49:20;;;;;;;11.68;6.63;;;6.80;62.60;;;;;;4086338;28;20100;-87
2022/04/17 06:51:24;;;;;;;13.95;7.10;;;7.00;62.40;;;;;;4089831;28;20531;-89
2022/04/17 06:53:25;;;;;;;12.57;6.82;;;7.00;61.70;;;;;;4085219;28;20028;-85
2022/04/17 06:55:27;;;;;;;13.15;7.38;;;7.10;61.20;;;;;;4089620;28;20111;-87
2022/04/17 06:57:32;;;;;;;11.95;6.25;;;7.20;60.80;;;;;;4084089;28;20201;-88
2022/04/17 06:59:33;;;;;;;14.23;6.90;;;7.40;60.00;;;;;;4104437;28;20030;-85
2022/04/17 07:01:34;;;;;;;15.80;7.68;;;7.50;59.00;;;;;;4086737;28;20090;-87
2022/04/17 07:03:34;;;;;;;12.15;6.28;;;7.60;59.10;;;;;;4082998;28;20059;-83
2022/04/17 07:05:35;;;;;;;10.70;6.18;;;7.60;58.90;;;;;;4091752;28;20583;-84
2022/04/17 07:07:36;;;;;;;12.73;7.10;;;7.70;58.70;;;;;;4088469;28;20055;-82
2022/04/17 07:09:36;;;;;;;11.95;6.80;;;7.80;58.50;;;;;;4099083;28;20042;-83
2022/04/17 07:11:37;;;;;;;11.50;6.30;;;7.90;58.40;;;;;;4085122;28;21605;-83
2022/04/17 07:13:39;;;;;;;11.38;5.50;;;8.00;58.10;;;;;;4086524;28;20038;-82
2022/04/17 07:15:40;;;;;;;17.30;6.32;;;8.10;57.60;;;;;;4082209;28;21320;-84
2022/04/17 07:17:41;;;;;;;10.38;5.63;;;8.30;57.40;;;;;;4086789;28;20218;-83
2022/04/17 07:19:42;;;;;;;13.25;5.70;;;8.30;57.00;;;;;;4102310;28;20042;-83
2022/04/17 07:21:42;;;;;;;9.07;5.38;;;8.40;56.70;;;;;;4087647;28;20046;-81
2022/04/17 07:23:45;;;;;;;10.43;5.25;;;8.40;56.40;;;;;;4088884;28;20031;-83
2022/04/17 07:25:46;;;;;;;10.02;5.40;;;8.50;56.00;;;;;;4088436;28;20062;-84
2022/04/17 07:27:48;;;;;;;10.80;5.47;;;8.60;55.60;;;;;;4097656;28;20090;-83
2022/04/17 07:29:49;;;;;;;11.15;5.88;;;8.70;55.20;;;;;;4085363;28;20027;-81
2022/04/17 07:31:51;;;;;;;10.65;5.47;;;8.80;55.20;;;;;;4091710;28;20141;-83
2022/04/17 07:33:51;;;;;;;10.10;5.63;;;8.80;54.40;;;;;;4094406;28;20031;-82
2022/04/17 07:35:53;;;;;;;9.98;5.50;;;8.90;54.80;;;;;;4092590;28;20479;-84
2022/04/17 07:37:56;;;;;;;11.00;5.80;;;9.00;53.30;;;;;;4086470;28;20023;-81
2022/04/17 07:39:56;;;;;;;9.57;4.95;;;9.10;54.20;;;;;;4084862;28;20514;-83
2022/04/17 07:41:59;;;;;;;7.85;4.35;;;9.20;53.70;;;;;;4097905;28;20031;-82
2022/04/17 07:43:59;;;;;;;9.77;4.70;;;9.30;53.90;;;;;;4086647;28;20031;-82
2022/04/17 07:46:00;;;;;;;9.95;5.03;;;9.30;53.10;;;;;;4083782;28;20050;-83
2022/04/17 07:48:01;;;;;;;8.50;5.00;;;9.50;52.50;;;;;;4099880;28;20166;-83
2022/04/17 07:50:03;;;;;;;9.80;5.30;;;9.60;52.70;;;;;;4084187;28;20115;-84
2022/04/17 07:52:03;;;;;;;8.32;4.60;;;9.60;52.50;;;;;;4089126;28;20030;-82
2022/04/17 07:54:04;;;;;;;10.02;4.75;;;9.70;52.00;;;;;;4086074;28;20023;-83
2022/04/17 07:56:05;;;;;;;12.75;5.60;;;9.80;51.40;;;;;;4081231;28;22069;-82
2022/04/17 07:58:16;;;;;;;10.23;5.75;;;9.90;51.30;;;;;;4080267;28;20115;-82
2022/04/17 08:00:21;;;;;;;9.32;5.03;;;10.00;51.90;;;;;;4084645;28;20028;-83
2022/04/17 08:02:22;;;;;;;8.40;4.78;;;10.00;51.60;;;;;;4099596;28;20133;-82
2022/04/17 08:04:23;;;;;;;8.70;5.20;;;10.10;51.70;;;;;;4084158;28;20043;-81
2022/04/17 08:06:24;;;;;;;8.02;4.82;;;10.20;51.20;;;;;;4112582;28;20098;-80
2022/04/17 08:08:24;;;;;;;8.13;4.50;;;10.40;51.30;;;;;;4123963;28;20022;-79
2022/04/17 08:10:25;;;;;;;10.20;4.60;;;10.40;50.60;;;;;;4090602;28;20035;-81
2022/04/17 08:12:26;;;;;;;11.40;4.85;;;10.50;50.80;;;;;;4086166;28;20502;-82
2022/04/17 08:14:26;;;;;;;8.23;3.85;;;10.50;50.10;;;;;;4085747;28;20027;-80
2022/04/17 08:16:27;;;;;;;9.90;4.88;;;10.60;49.80;;;;;;4087631;28;20023;-82
2022/04/17 08:18:28;;;;;;;8.70;4.28;;;10.70;49.60;;;;;;4101058;28;20154;-82
2022/04/17 08:20:29;;;;;;;9.48;4.47;;;10.70;50.10;;;;;;4085321;28;20035;-83
2022/04/17 08:22:29;;;;;;;8.13;4.50;;;10.80;49.30;;;;;;4087677;28;21471;-85
2022/04/17 08:24:30;;;;;;;10.85;5.10;;;10.90;49.30;;;;;;4091778;28;20383;-81
2022/04/17 08:26:31;;;;;;;10.38;5.10;;;10.90;47.80;;;;;;4089996;28;20026;-82
2022/04/17 08:28:32;;;;;;;7.35;4.03;;;11.10;48.00;;;;;;4086534;28;20019;-81
2022/04/17 08:30:34;;;;;;;8.23;4.93;;;11.10;48.10;;;;;;4104081;28;20063;-82
2022/04/17 08:32:34;;;;;;;10.35;4.80;;;11.10;48.10;;;;;;4085343;28;20389;-81
2022/04/17 08:34:35;;;;;;;8.73;4.32;;;11.20;47.90;;;;;;4083550;28;20042;-82
2022/04/17 08:36:35;;;;;;;8.60;4.82;;;11.30;47.80;;;;;;4089106;28;20027;-83
2022/04/17 08:38:36;;;;;;;9.35;4.80;;;11.30;47.70;;;;;;4092280;28;20557;-83
2022/04/17 08:40:39;;;;;;;11.32;4.85;;;11.50;46.90;;;;;;4102139;28;20098;-82
2022/04/17 08:42:40;;;;;;;9.50;4.80;;;11.50;47.40;;;;;;4099349;28;20031;-82
2022/04/17 08:44:41;;;;;;;7.00;4.28;;;11.50;47.40;;;;;;4104326;28;20070;-83
2022/04/17 08:46:42;;;;;;;12.93;5.38;;;11.60;47.30;;;;;;4088702;28;20078;-82
2022/04/17 08:48:42;;;;;;;11.55;4.43;;;11.70;47.00;;;;;;4090043;28;20110;-84
2022/04/17 08:50:43;;;;;;;7.93;4.43;;;11.80;46.70;;;;;;4092451;28;20109;-83
2022/04/17 08:52:50;;;;;;;12.07;4.75;;;11.80;46.50;;;;;;4089340;28;20027;-83
2022/04/17 08:54:51;;;;;;;10.20;4.40;;;11.90;46.40;;;;;;4102030;28;20049;-81
2022/04/17 08:56:52;;;;;;;9.32;4.80;;;11.90;46.60;;;;;;4089007;28;20039;-82
2022/04/17 08:58:53;;;;;;;10.73;4.70;;;12.00;46.80;;;;;;4092254;28;20123;-83
2022/04/17 09:00:53;;;;;;;9.77;4.47;;;12.10;46.70;;;;;;4085854;28;20076;-83
2022/04/17 09:02:54;;;;;;;8.30;4.75;;;12.10;46.70;;;;;;4083992;28;20499;-83
2022/04/17 09:04:55;;;;;;;8.07;4.78;;;12.20;46.20;;;;;;4090464;28;20122;-83
2022/04/17 09:06:57;;;;;;;8.48;4.63;;;12.30;45.50;;;;;;4082708;28;20043;-84
2022/04/17 09:09:02;;;;;;;7.63;4.53;;;12.30;44.80;;;;;;4087194;28;20114;-83
2022/04/17 09:11:08;;;;;;;8.15;4.40;;;12.30;44.70;;;;;;4094640;28;20106;-83
2022/04/17 09:13:08;;;;;;;8.70;4.40;;;12.30;44.60;;;;;;4106989;28;20391;-83
2022/04/17 09:15:10;;;;;;;12.15;5.35;;;12.30;44.70;;;;;;4092578;28;20070;-84
2022/04/17 09:17:11;;;;;;;7.63;4.32;;;12.40;44.80;;;;;;4106032;28;20027;-82
2022/04/17 09:19:16;;;;;;;8.55;4.82;;;12.40;44.20;;;;;;4086964;28;20028;-84
2022/04/17 09:21:34;;;;;;;9.05;5.30;;;12.50;44.80;;;;;;4089489;28;20024;-84
2022/04/17 09:23:40;;;;;;;9.45;5.05;;;12.60;45.20;;;;;;4086103;28;20074;-84
2022/04/17 09:25:45;;;;;;;9.30;4.75;;;12.60;44.90;;;;;;4098943;28;20026;-82
2022/04/17 09:28:06;;;;;;;7.25;4.60;;;12.70;44.80;;;;;;4080468;28;20035;-83
2022/04/17 09:30:24;;;;;;;11.95;5.18;;;12.80;44.20;;;;;;4090652;28;20039;-82
2022/04/17 09:32:27;;;;;;;13.90;5.53;;;12.90;43.40;;;;;;4088549;28;20480;-84
2022/04/17 09:34:46;;;;;;;12.27;5.78;;;13.00;44.00;;;;;;4097412;28;20042;-82
2022/04/17 09:36:55;;;;;;;11.30;5.68;;;13.00;43.10;;;;;;4085635;28;20353;-84
2022/04/17 09:39:14;;;;;;;11.05;5.32;;;13.10;42.60;;;;;;4101187;28;20046;-84
2022/04/17 09:41:14;;;;;;;9.85;5.18;;;13.20;42.20;;;;;;4088072;28;20039;-84
2022/04/17 09:43:17;;;;;;;8.63;4.78;;;13.30;43.00;;;;;;4083406;28;20031;-84
2022/04/17 09:45:18;;;;;;;10.32;5.25;;;13.30;42.50;;;;;;4084472;28;20043;-85
2022/04/17 09:47:22;;;;;;;9.77;5.03;;;13.40;42.90;;;;;;4099901;28;20074;-84
2022/04/17 09:49:23;;;;;;;12.23;5.50;;;13.50;42.50;;;;;;4083073;28;20023;-84
2022/04/17 09:51:28;;;;;;;13.18;5.50;;;13.70;43.30;;;;;;4088916;28;20119;-84
2022/04/17 09:53:34;;;;;;;10.35;5.75;;;13.70;41.80;;;;;;4087482;28;20115;-84
2022/04/17 09:55:38;;;;;;;9.35;5.20;;;13.80;42.00;;;;;;4086569;28;20559;-83
2022/04/17 09:57:41;;;;;;;10.07;5.90;;;13.80;42.30;;;;;;4081756;28;20027;-85
2022/04/17 09:59:42;;;;;;;8.55;4.93;;;13.90;40.70;;;;;;4089087;28;20065;-85
2022/04/17 10:01:44;;;;;;;9.10;5.10;;;14.00;41.50;;;;;;4102930;28;20035;-85
2022/04/17 10:03:50;;;;;;;8.75;5.05;;;14.10;40.80;;;;;;4086974;28;20035;-84
2022/04/17 10:05:50;;;;;;;8.93;4.85;;;14.10;40.50;;;;;;4089845;28;20031;-83
2022/04/17 10:07:51;;;;;;;9.05;5.20;;;14.20;40.40;;;;;;4088655;28;20035;-84
2022/04/17 10:09:52;;;;;;;9.07;5.13;;;14.30;40.10;;;;;;4081089;28;20031;-83
2022/04/17 10:11:56;;;;;;;10.43;5.53;;;14.30;39.10;;;;;;4094000;28;20027;-83
2022/04/17 10:13:58;;;;;;;9.43;4.75;;;14.30;39.10;;;;;;4084036;28;20034;-84
2022/04/17 10:16:01;;;;;;;10.00;4.80;;;14.40;39.10;;;;;;4089188;28;20346;-86
2022/04/17 10:18:04;;;;;;;10.25;5.55;;;14.40;39.20;;;;;;4092275;28;20031;-85
2022/04/17 10:20:09;;;;;;;11.73;5.47;;;14.40;38.10;;;;;;4076710;28;20083;-83
2022/04/17 10:22:12;;;;;;;13.48;5.57;;;14.50;37.20;;;;;;4084722;28;20046;-84
2022/04/17 10:24:16;;;;;;;12.48;5.65;;;14.50;38.20;;;;;;4102258;28;20045;-84
2022/04/17 10:26:20;;;;;;;10.20;5.43;;;14.50;38.60;;;;;;4088060;28;20086;-83
2022/04/17 10:28:22;;;;;;;9.48;5.35;;;14.50;37.50;;;;;;4066523;29;20044;-82
2022/04/17 10:30:26;;;;;;;11.13;6.18;;;14.50;36.80;;;;;;4084689;28;20102;-84
2022/04/17 10:32:48;;;;;;;12.65;5.78;;;14.40;34.10;;;;;;4084671;28;20113;-83
2022/04/17 10:35:04;;;;;;;12.15;4.88;;;14.40;34.20;;;;;;4084870;28;20035;-82
2022/04/17 10:37:16;;;;;;;9.45;5.53;;;14.40;35.40;;;;;;4092690;28;20876;-84
2022/04/17 10:39:38;;;;;;;10.23;5.55;;;14.40;35.30;;;;;;4101174;28;20093;-84
2022/04/17 10:41:41;;;;;;;10.02;5.72;;;14.40;37.40;;;;;;4088568;28;20448;-82
2022/04/17 10:43:42;;;;;;;12.73;5.50;;;14.40;38.40;;;;;;4085215;28;20039;-81
2022/04/17 10:46:07;;;;;;;9.68;5.57;;;14.40;39.00;;;;;;4088962;28;20459;-84
2022/04/17 10:48:11;;;;;;;11.25;6.00;;;14.30;39.20;;;;;;4083276;28;20421;-84